Farmersville, Texas
Current Conditions -  °F | °C
As of 11:53 AM on Sunday 25 Jan 2015 (Local Time) from KTKI Reporting Station
Clear Clear  
Wind Chill: 60°   Ceiling: Unl
Heat Index: 60°   Visibility: 10mi
Dew Point: 33°   Wind: 22mph
Humidity: 36%   Direction: 300°WNW
Pressure: 30.02"   Gusts: 33mph
Location:  33.16°N, 96.36°W
Report Text: KTKI 251753Z 30019G29KT 10SM CLR 16/01 A3002 RMK AO2 PK WND 31035/1704 SLP172 T01560006 10156 20067 50008
Loading
Personal Weather Stations






























Interactive Weather Map New forecast layout! Learn more

10-Day Weather Forecast

Advertisements
Track Severe Weather on mobile